Time;durP1;ratioP1;P1;durP2;ratioP2;P2;SDS_P1;SDS_P2;PMS_P1;PMS_P2;Temp;Humidity;BMP_temperature;BMP_pressure;BME280_temperature;BME280_humidity;BME280_pressure;Samples;Min_cycle;Max_cycle;Signal;HPM_P1;HPM_P2
2021/06/11 00:02:07;;;;;;;17.35;11.68;;;17.20;82.40;;;;;;6399811;22;20039;-74
2021/06/11 00:04:33;;;;;;;13.60;11.20;;;17.30;82.30;;;;;;6398346;22;20006;-75
2021/06/11 00:07:00;;;;;;;14.80;10.52;;;17.20;82.10;;;;;;6399788;22;20030;-74
2021/06/11 00:09:26;;;;;;;14.70;11.13;;;17.20;82.10;;;;;;6398620;22;20005;-72
2021/06/11 00:11:53;;;;;;;16.85;12.50;;;17.20;82.60;;;;;;6399332;22;20005;-73
2021/06/11 00:14:19;;;;;;;14.68;11.13;;;17.20;82.00;;;;;;6399451;22;20416;-71
2021/06/11 00:16:46;;;;;;;17.38;13.43;;;17.20;82.00;;;;;;6398839;22;19996;-75
2021/06/11 00:19:12;;;;;;;14.65;11.63;;;17.20;81.90;;;;;;6399585;22;20080;-72
2021/06/11 00:21:39;;;;;;;16.17;11.65;;;17.20;82.00;;;;;;6398039;22;20751;-74
2021/06/11 00:24:06;;;;;;;15.25;11.60;;;17.20;81.90;;;;;;6399891;22;20004;-75
2021/06/11 00:26:32;;;;;;;15.68;12.25;;;17.10;81.80;;;;;;6398198;22;20005;-76
2021/06/11 00:28:59;;;;;;;13.77;11.65;;;17.10;81.70;;;;;;6371136;22;20332;-74
2021/06/11 00:31:26;;;;;;;13.25;11.10;;;17.10;81.70;;;;;;6398811;22;20005;-73
2021/06/11 00:33:52;;;;;;;14.25;10.68;;;17.10;81.60;;;;;;6398389;22;20091;-74
2021/06/11 00:36:19;;;;;;;16.65;12.15;;;17.10;81.50;;;;;;6399181;22;19998;-74
2021/06/11 00:38:45;;;;;;;16.20;12.18;;;17.10;81.50;;;;;;6398135;22;20008;-74
2021/06/11 00:41:12;;;;;;;15.57;11.60;;;17.10;81.40;;;;;;6399642;22;19998;-74
2021/06/11 00:43:39;;;;;;;17.67;12.35;;;17.00;81.30;;;;;;6397296;22;20012;-76
2021/06/11 00:46:05;;;;;;;18.58;13.30;;;17.10;81.20;;;;;;6399303;22;19994;-76
2021/06/11 00:48:32;;;;;;;17.52;13.30;;;17.00;81.20;;;;;;6398438;22;20009;-75
2021/06/11 00:50:58;;;;;;;17.90;12.52;;;17.00;81.20;;;;;;6398695;22;20040;-76
2021/06/11 00:53:25;;;;;;;18.73;13.00;;;17.00;81.00;;;;;;6399236;22;20489;-74
2021/06/11 00:55:51;;;;;;;20.42;14.30;;;17.00;81.60;;;;;;6398326;22;20000;-73
2021/06/11 00:58:18;;;;;;;19.40;14.48;;;17.00;80.80;;;;;;6399107;22;19998;-74
2021/06/11 01:00:48;;;;;;;17.20;13.95;;;17.00;80.70;;;;;;6397831;22;19997;-74
2021/06/11 01:03:54;;;;;;;17.98;13.43;;;17.00;80.70;;;;;;6396281;22;20043;-74
2021/06/11 01:06:22;;;;;;;18.38;13.90;;;16.90;80.50;;;;;;6397127;22;20038;-73
2021/06/11 01:08:50;;;;;;;18.80;13.75;;;16.90;80.40;;;;;;6395922;22;20017;-73
2021/06/11 01:11:17;;;;;;;19.63;13.77;;;16.90;80.40;;;;;;6396756;22;20017;-73
2021/06/11 01:13:44;;;;;;;20.25;14.40;;;16.90;80.30;;;;;;6396223;22;20001;-74
2021/06/11 01:16:50;;;;;;;20.50;14.13;;;16.90;80.20;;;;;;6397352;22;20401;-73
2021/06/11 01:19:56;;;;;;;19.58;13.02;;;16.90;80.00;;;;;;6396436;22;19998;-74
2021/06/11 01:22:50;;;;;;;20.70;13.85;;;16.90;79.80;;;;;;6396776;22;20094;-75
2021/06/11 01:25:55;;;;;;;19.08;14.35;;;16.90;79.60;;;;;;6398900;22;20076;-75
2021/06/11 01:29:01;;;;;;;19.38;13.98;;;16.80;79.40;;;;;;6370535;22;20076;-73
2021/06/11 01:32:07;;;;;;;18.48;12.82;;;16.80;79.20;;;;;;6397367;22;20010;-73
2021/06/11 01:35:13;;;;;;;18.75;14.75;;;16.80;79.10;;;;;;6396966;22;20013;-75
2021/06/11 01:37:45;;;;;;;18.58;13.80;;;16.70;78.90;;;;;;6370276;22;20317;-75
2021/06/11 01:40:12;;;;;;;19.20;13.50;;;16.80;78.90;;;;;;6370170;22;20009;-75
2021/06/11 01:42:43;;;;;;;19.90;13.10;;;16.70;78.70;;;;;;6398698;22;19994;-74
2021/06/11 01:45:12;;;;;;;15.98;11.98;;;16.70;78.60;;;;;;6398309;22;19998;-73
2021/06/11 01:47:44;;;;;;;16.38;13.13;;;16.70;78.50;;;;;;6397677;22;20017;-75
2021/06/11 01:50:13;;;;;;;15.85;12.10;;;16.70;78.30;;;;;;6398755;22;20001;-74
2021/06/11 01:52:41;;;;;;;15.45;11.82;;;16.70;78.20;;;;;;6397246;22;20088;-74
2021/06/11 01:55:09;;;;;;;14.52;11.15;;;16.60;78.10;;;;;;6399164;22;20378;-74
2021/06/11 01:57:37;;;;;;;16.60;13.50;;;16.60;77.90;;;;;;6397514;22;20001;-74
2021/06/11 02:00:05;;;;;;;23.42;18.85;;;16.60;77.90;;;;;;6398720;22;19998;-73
2021/06/11 02:02:32;;;;;;;28.38;20.77;;;16.60;77.70;;;;;;6398263;22;20025;-74
2021/06/11 02:04:59;;;;;;;24.70;17.52;;;16.60;77.70;;;;;;6369386;22;20001;-75
2021/06/11 02:07:27;;;;;;;22.55;14.90;;;16.60;77.60;;;;;;6398659;22;20026;-75
2021/06/11 02:09:54;;;;;;;17.80;12.98;;;16.60;77.50;;;;;;6397877;22;20002;-73
2021/06/11 02:12:21;;;;;;;14.27;12.32;;;16.50;77.30;;;;;;6398465;22;20005;-73
2021/06/11 02:14:48;;;;;;;16.85;13.02;;;16.50;77.30;;;;;;6397948;22;20002;-72
2021/06/11 02:17:15;;;;;;;18.48;12.80;;;16.50;77.20;;;;;;6398436;22;20027;-75
2021/06/11 02:19:43;;;;;;;15.70;11.23;;;16.50;77.10;;;;;;6398603;22;20355;-74
2021/06/11 02:22:10;;;;;;;14.25;11.05;;;16.50;77.00;;;;;;6397687;22;20424;-74
2021/06/11 02:24:38;;;;;;;13.88;10.68;;;16.50;77.00;;;;;;6398608;22;20030;-76
2021/06/11 02:27:07;;;;;;;17.40;12.70;;;16.50;76.80;;;;;;6397158;22;19998;-75
2021/06/11 02:29:37;;;;;;;16.63;10.88;;;16.50;76.80;;;;;;6398832;22;20029;-75
2021/06/11 02:32:05;;;;;;;17.02;10.90;;;16.50;76.70;;;;;;6397013;22;20013;-73
2021/06/11 02:34:32;;;;;;;12.93;10.40;;;16.40;76.60;;;;;;6398513;22;19994;-71
2021/06/11 02:36:59;;;;;;;12.70;10.48;;;16.40;77.20;;;;;;6397847;22;20443;-72
2021/06/11 02:39:26;;;;;;;13.15;9.50;;;16.40;76.50;;;;;;6398061;22;20009;-71
2021/06/11 02:42:06;;;;;;;13.00;9.57;;;16.40;76.50;;;;;;6398545;22;20416;-72
2021/06/11 02:44:35;;;;;;;11.70;9.82;;;16.40;76.40;;;;;;6396991;22;20108;-71
2021/06/11 02:47:18;;;;;;;12.88;10.35;;;16.40;76.30;;;;;;6398433;22;19998;-71
2021/06/11 02:49:59;;;;;;;13.45;9.93;;;16.40;76.20;;;;;;6397628;22;20329;-73
2021/06/11 02:52:30;;;;;;;12.68;9.63;;;16.30;76.10;;;;;;6397623;22;20533;-73
2021/06/11 02:55:02;;;;;;;13.57;10.25;;;16.40;76.10;;;;;;6398416;22;20005;-74
2021/06/11 02:57:49;;;;;;;13.40;9.77;;;16.30;75.90;;;;;;6397085;22;20021;-73
2021/06/11 03:00:16;;;;;;;10.05;8.43;;;16.30;75.90;;;;;;6400445;22;20069;-71
2021/06/11 03:03:03;;;;;;;12.10;9.40;;;16.30;75.90;;;;;;6399436;22;19998;-73
2021/06/11 03:05:31;;;;;;;16.15;8.73;;;16.30;75.80;;;;;;6399437;22;19998;-72
2021/06/11 03:08:01;;;;;;;13.13;10.38;;;16.30;75.70;;;;;;6400315;22;19998;-70
2021/06/11 03:10:30;;;;;;;22.88;16.52;;;16.30;75.60;;;;;;6399089;22;20077;-72
2021/06/11 03:13:01;;;;;;;18.13;14.20;;;16.30;75.50;;;;;;6400228;22;20021;-70
2021/06/11 03:15:30;;;;;;;16.95;13.35;;;16.20;75.40;;;;;;6398794;22;20006;-71
2021/06/11 03:18:01;;;;;;;15.68;11.57;;;16.30;75.40;;;;;;6399958;22;20380;-73
2021/06/11 03:20:33;;;;;;;15.52;11.50;;;16.20;75.20;;;;;;6399765;22;20080;-73
2021/06/11 03:23:10;;;;;;;12.32;10.05;;;16.20;75.30;;;;;;6398880;22;20016;-72
2021/06/11 03:25:52;;;;;;;12.82;9.02;;;16.20;75.20;;;;;;6400080;22;20114;-74
2021/06/11 03:28:25;;;;;;;15.57;8.95;;;16.20;75.10;;;;;;6398633;22;20026;-69
2021/06/11 03:30:58;;;;;;;10.98;8.38;;;16.20;75.10;;;;;;6400139;22;20006;-71
2021/06/11 03:33:37;;;;;;;13.60;8.38;;;16.20;75.00;;;;;;6399554;22;20001;-73
2021/06/11 03:36:49;;;;;;;10.55;8.52;;;16.20;74.90;;;;;;6398715;22;20024;-72
2021/06/11 03:39:20;;;;;;;10.63;7.95;;;16.20;74.80;;;;;;6399177;22;20013;-73
2021/06/11 03:41:48;;;;;;;11.70;8.35;;;16.20;74.80;;;;;;6399124;22;19997;-73
2021/06/11 03:44:16;;;;;;;12.20;8.63;;;16.10;74.70;;;;;;6399306;22;19994;-74
2021/06/11 03:46:47;;;;;;;11.38;7.18;;;16.20;74.70;;;;;;6399937;22;20023;-69
2021/06/11 03:49:15;;;;;;;10.15;6.68;;;16.10;74.60;;;;;;6402583;22;20078;-72
2021/06/11 03:51:43;;;;;;;10.27;7.18;;;16.10;74.50;;;;;;6403558;22;20013;-76
2021/06/11 03:54:13;;;;;;;7.90;6.45;;;16.10;74.50;;;;;;6398449;22;19994;-74
2021/06/11 03:56:40;;;;;;;10.02;6.93;;;16.10;74.50;;;;;;6397937;22;20397;-68
2021/06/11 03:59:11;;;;;;;14.35;11.30;;;16.10;74.40;;;;;;6397593;22;20068;-72
2021/06/11 04:01:43;;;;;;;18.58;14.48;;;16.10;74.40;;;;;;6397878;22;19998;-73
2021/06/11 04:04:10;;;;;;;18.17;14.63;;;16.00;74.40;;;;;;6399976;22;20001;-69
2021/06/11 14:09:54;;;;;;;7.45;4.00;;;21.60;55.70;;;;;;6082976;23;942727;-69
2021/06/11 14:12:20;;;;;;;7.28;3.60;;;21.60;55.80;;;;;;6122448;23;20010;-72
2021/06/11 14:14:47;;;;;;;10.77;3.65;;;21.60;55.90;;;;;;6121916;23;20321;-67
2021/06/11 14:17:14;;;;;;;7.47;5.68;;;21.50;55.90;;;;;;6122885;23;20014;-75
2021/06/11 14:19:41;;;;;;;47.38;39.67;;;21.50;56.10;;;;;;6121309;23;20026;-75
2021/06/11 14:22:09;;;;;;;13.07;9.05;;;21.50;56.10;;;;;;6122664;23;20009;-68
2021/06/11 14:24:36;;;;;;;14.70;12.30;;;21.50;55.40;;;;;;6121474;23;20359;-74
2021/06/11 14:27:05;;;;;;;15.35;6.32;;;21.50;54.70;;;;;;6122846;23;20405;-74
2021/06/11 14:29:33;;;;;;;9.10;5.47;;;21.50;54.50;;;;;;6121326;23;19999;-72
2021/06/11 14:31:59;;;;;;;8.40;5.03;;;21.60;54.70;;;;;;6122760;23;20445;-73
2021/06/11 14:34:26;;;;;;;50.58;42.10;;;21.60;54.50;;;;;;6121741;23;20410;-70
2021/06/11 14:36:53;;;;;;;25.15;22.45;;;21.60;54.90;;;;;;6121688;23;20112;-71
2021/06/11 14:39:20;;;;;;;10.70;7.38;;;21.50;54.90;;;;;;6123089;23;20013;-73
2021/06/11 14:41:46;;;;;;;9.65;4.65;;;21.50;54.90;;;;;;6121686;23;20024;-72
2021/06/11 14:44:15;;;;;;;6.78;3.05;;;21.40;54.90;;;;;;6122190;23;20077;-77
2021/06/11 14:46:42;;;;;;;7.53;3.55;;;21.40;55.20;;;;;;6122265;23;20002;-74
2021/06/11 14:49:09;;;;;;;13.02;4.55;;;21.30;55.60;;;;;;6123973;23;20089;-72
2021/06/11 14:51:36;;;;;;;8.55;3.38;;;21.20;56.80;;;;;;6124051;23;20457;-71
2021/06/11 14:54:04;;;;;;;5.28;3.22;;;21.20;57.30;;;;;;6123525;23;20038;-73
2021/06/11 14:56:40;;;;;;;5.30;2.88;;;21.10;57.20;;;;;;6129414;23;20014;-72
2021/06/11 14:59:07;;;;;;;5.60;2.58;;;21.10;57.20;;;;;;6123317;23;19998;-73
2021/06/11 15:01:36;;;;;;;8.45;4.50;;;21.00;57.10;;;;;;6124255;23;20006;-72
2021/06/11 15:04:03;;;;;;;5.20;2.70;;;20.90;57.20;;;;;;6123952;23;20002;-74
2021/06/11 15:06:30;;;;;;;6.80;3.38;;;20.80;57.40;;;;;;6122219;23;20326;-74
2021/06/11 15:08:56;;;;;;;126.00;95.40;;;20.70;57.90;;;;;;6124196;23;20014;-71
2021/06/11 15:11:23;;;;;;;26.50;18.98;;;20.60;58.50;;;;;;6123359;23;20024;-76
2021/06/11 15:13:49;;;;;;;13.70;9.20;;;20.60;58.50;;;;;;6123059;23;20438;-74
2021/06/11 15:16:16;;;;;;;9.93;5.10;;;20.50;58.80;;;;;;6123110;23;20346;-73
2021/06/11 15:18:42;;;;;;;5.85;3.40;;;20.50;58.70;;;;;;6124225;23;20026;-68
2021/06/11 15:21:09;;;;;;;5.22;3.13;;;20.40;58.90;;;;;;6123321;23;20303;-72
2021/06/11 15:23:35;;;;;;;5.80;3.30;;;20.40;59.20;;;;;;6123500;23;20013;-71
2021/06/11 15:26:02;;;;;;;10.38;5.63;;;20.40;59.40;;;;;;6123977;23;20029;-71
2021/06/11 15:28:28;;;;;;;8.77;3.97;;;20.30;59.40;;;;;;6123486;23;20005;-71
2021/06/11 15:30:55;;;;;;;6.57;3.60;;;20.20;59.70;;;;;;6124228;23;20033;-69
2021/06/11 15:33:23;;;;;;;8.75;3.38;;;20.20;60.10;;;;;;6120453;23;20465;-71
2021/06/11 15:35:51;;;;;;;10.82;4.38;;;20.20;60.20;;;;;;6123918;23;20081;-71
2021/06/11 15:38:18;;;;;;;9.70;4.38;;;20.10;61.70;;;;;;6122633;23;20002;-70
2021/06/11 15:40:45;;;;;;;12.43;3.85;;;20.10;60.80;;;;;;6124057;23;20005;-72
2021/06/11 15:43:12;;;;;;;4.43;2.83;;;20.00;60.40;;;;;;6123640;23;20006;-70
2021/06/11 15:45:41;;;;;;;8.27;3.15;;;20.00;60.40;;;;;;6123841;23;19998;-72
2021/06/11 15:48:09;;;;;;;6.03;3.30;;;19.90;60.10;;;;;;6124044;23;20422;-68
2021/06/11 15:50:37;;;;;;;78.78;67.82;;;19.90;60.40;;;;;;6122557;23;20022;-74
2021/06/11 15:53:04;;;;;;;34.58;26.35;;;19.80;60.60;;;;;;6124450;23;19998;-72
2021/06/11 15:56:11;;;;;;;22.00;16.40;;;19.80;60.90;;;;;;6122738;23;20005;-71
2021/06/11 15:58:37;;;;;;;14.13;7.45;;;19.80;61.10;;;;;;6123145;23;20366;-69
2021/06/11 16:01:05;;;;;;;9.82;5.68;;;19.80;61.60;;;;;;6124025;23;19998;-69
2021/06/11 16:03:32;;;;;;;16.40;5.18;;;19.70;61.70;;;;;;6122353;23;20006;-69
2021/06/11 16:05:59;;;;;;;7.53;5.20;;;19.60;62.00;;;;;;6122319;23;20006;-78
2021/06/11 16:08:25;;;;;;;16.55;9.55;;;19.60;63.00;;;;;;6123051;23;20481;-72
2021/06/11 16:10:53;;;;;;;14.77;10.60;;;19.50;62.90;;;;;;6123847;23;20026;-72
2021/06/11 16:13:19;;;;;;;9.52;7.78;;;19.50;63.20;;;;;;6122583;23;20077;-71
2021/06/11 16:15:46;;;;;;;11.40;7.07;;;19.50;62.80;;;;;;6123142;23;20025;-70
2021/06/11 16:18:12;;;;;;;15.85;5.65;;;19.50;62.90;;;;;;6123747;23;20025;-70
2021/06/11 16:20:39;;;;;;;13.52;4.55;;;19.60;64.00;;;;;;6122911;23;20008;-71
2021/06/11 16:23:05;;;;;;;8.52;5.30;;;19.60;64.80;;;;;;6123763;23;20361;-69
2021/06/11 16:25:32;;;;;;;11.65;5.80;;;19.50;62.70;;;;;;6122512;23;20012;-71
2021/06/11 16:27:58;;;;;;;11.82;6.75;;;19.40;62.70;;;;;;6123493;23;20418;-72
2021/06/11 16:30:25;;;;;;;11.52;6.88;;;19.30;63.50;;;;;;6122611;23;20330;-71
2021/06/11 16:33:31;;;;;;;14.18;8.27;;;19.20;63.50;;;;;;6122373;23;20013;-71
2021/06/11 16:36:38;;;;;;;14.57;10.52;;;19.10;63.90;;;;;;6123062;23;20006;-71
2021/06/11 16:39:45;;;;;;;19.60;17.48;;;19.00;64.60;;;;;;6121574;23;20359;-70
2021/06/11 16:42:51;;;;;;;20.40;16.85;;;18.90;64.80;;;;;;6120919;23;20002;-71
2021/06/11 16:45:57;;;;;;;15.10;13.52;;;18.90;64.70;;;;;;6122070;23;20030;-72
2021/06/11 16:48:24;;;;;;;25.83;15.68;;;18.80;64.80;;;;;;6121824;23;20312;-77
2021/06/11 16:50:51;;;;;;;18.15;14.00;;;18.70;64.90;;;;;;6119255;23;20057;-85
2021/06/11 16:53:17;;;;;;;18.70;13.07;;;18.70;65.10;;;;;;6122953;23;20013;-75
2021/06/11 16:55:44;;;;;;;16.48;13.48;;;18.70;65.10;;;;;;6120584;23;20006;-73
2021/06/11 16:58:11;;;;;;;16.67;12.60;;;18.80;65.10;;;;;;6119298;23;20002;-78
2021/06/11 17:00:38;;;;;;;16.90;11.65;;;18.80;65.00;;;;;;6120329;23;20030;-80
2021/06/11 17:03:05;;;;;;;13.90;11.13;;;18.80;64.90;;;;;;6121501;23;20077;-81
2021/06/11 17:05:32;;;;;;;19.63;11.18;;;18.90;64.90;;;;;;6121049;23;20001;-79
2021/06/11 17:07:59;;;;;;;11.18;9.77;;;18.80;64.70;;;;;;6117640;23;20045;-73
2021/06/11 17:10:26;;;;;;;14.85;10.73;;;18.90;64.70;;;;;;6121875;23;19998;-81
2021/06/11 17:12:54;;;;;;;16.73;10.63;;;18.90;64.70;;;;;;6120205;23;20025;-80
2021/06/11 17:15:23;;;;;;;13.88;9.48;;;18.90;64.70;;;;;;6121794;23;20009;-81
2021/06/11 17:18:29;;;;;;;14.60;9.15;;;18.90;64.70;;;;;;6119202;23;20013;-81
2021/06/11 17:21:35;;;;;;;12.35;8.90;;;18.80;64.60;;;;;;6120597;23;20027;-81
2021/06/11 17:24:44;;;;;;;12.27;8.52;;;18.90;64.80;;;;;;6120307;23;20072;-80
2021/06/11 17:27:50;;;;;;;12.75;7.82;;;18.90;64.80;;;;;;6120135;23;20009;-82
2021/06/11 17:30:39;;;;;;;11.18;9.80;;;18.90;64.80;;;;;;6120172;23;20029;-77
2021/06/11 17:33:45;;;;;;;27.80;20.73;;;18.80;64.80;;;;;;6122443;23;20783;-83
2021/06/11 17:37:04;;;;;;;38.80;27.85;;;18.80;64.90;;;;;;6120925;23;20010;-79
2021/06/11 17:40:10;;;;;;;32.47;26.08;;;18.80;65.00;;;;;;6120013;23;20014;-80
2021/06/11 17:43:16;;;;;;;28.23;20.15;;;18.80;65.10;;;;;;6118937;23;20422;-79
2021/06/11 17:46:22;;;;;;;21.98;17.38;;;18.80;65.10;;;;;;6118291;23;20002;-78
2021/06/11 17:49:28;;;;;;;19.83;14.38;;;18.80;65.20;;;;;;6118599;23;20013;-72
2021/06/11 17:52:34;;;;;;;18.48;14.13;;;18.80;65.30;;;;;;6116829;23;20009;-77
2021/06/11 17:55:01;;;;;;;20.08;14.18;;;18.70;65.40;;;;;;6119495;23;20006;-80
2021/06/11 17:57:27;;;;;;;19.23;13.85;;;18.70;65.40;;;;;;6118949;23;20017;-79
2021/06/11 17:59:54;;;;;;;29.13;17.02;;;18.70;65.50;;;;;;6120405;23;20002;-80
2021/06/11 18:02:22;;;;;;;25.45;16.15;;;18.70;65.60;;;;;;6120965;23;20006;-83
2021/06/11 18:04:51;;;;;;;24.08;16.27;;;18.70;65.70;;;;;;6119909;23;20002;-75
2021/06/11 18:07:23;;;;;;;24.15;18.35;;;18.70;65.90;;;;;;6120613;23;20009;-81
2021/06/11 18:09:51;;;;;;;23.60;18.42;;;18.70;65.90;;;;;;6120121;23;20059;-80
2021/06/11 18:12:21;;;;;;;27.08;19.40;;;18.70;66.00;;;;;;6121655;23;20016;-78
2021/06/11 18:15:06;;;;;;;23.55;17.77;;;18.60;66.00;;;;;;6121179;23;20006;-76
2021/06/11 18:17:41;;;;;;;25.92;19.35;;;18.60;66.00;;;;;;6121114;23;20021;-87
2021/06/11 18:20:28;;;;;;;;;;;18.60;66.10;;;;;;6124999;23;20004;-80
2021/06/11 18:22:55;;;;;;;27.13;19.40;;;18.60;66.10;;;;;;6120297;23;19959;-75
2021/06/11 18:25:30;;;;;;;24.60;19.20;;;18.70;66.10;;;;;;6121582;23;20084;-76
2021/06/11 18:28:17;;;;;;;27.08;19.27;;;18.60;66.10;;;;;;6120898;23;20033;-77
2021/06/11 18:30:47;;;;;;;28.15;21.05;;;18.60;66.20;;;;;;6119655;23;20757;-77
2021/06/11 18:33:24;;;;;;;27.58;20.40;;;18.60;66.30;;;;;;6120631;23;20002;-76
2021/06/11 18:35:51;;;;;;;29.27;20.33;;;18.60;66.30;;;;;;6119529;23;20005;-74
2021/06/11 18:38:17;;;;;;;28.33;20.70;;;18.50;66.30;;;;;;6120452;23;20002;-78
2021/06/11 18:40:44;;;;;;;24.00;19.58;;;18.50;66.40;;;;;;6119570;23;20009;-77
2021/06/11 18:43:13;;;;;;;24.25;18.52;;;18.50;66.30;;;;;;6120376;23;20044;-75
2021/06/11 18:45:45;;;;;;;25.48;18.30;;;18.50;66.40;;;;;;6121171;23;20002;-74
2021/06/11 18:50:54;;;;;;;24.95;17.77;;;18.50;66.40;;;;;;6121029;23;20032;-75
2021/06/11 18:53:24;;;;;;;20.00;16.48;;;18.50;66.50;;;;;;6120063;23;20032;-75
2021/06/11 18:55:52;;;;;;;22.15;16.45;;;18.50;66.50;;;;;;6120630;23;19998;-76
2021/06/11 18:58:28;;;;;;;20.58;15.23;;;18.50;66.50;;;;;;6120031;23;20002;-72
2021/06/11 19:00:55;;;;;;;23.33;15.02;;;18.40;66.90;;;;;;6119444;23;20065;-72
2021/06/11 19:03:24;;;;;;;20.92;14.05;;;18.40;66.50;;;;;;6120260;23;20032;-75
2021/06/11 19:06:07;;;;;;;24.45;18.83;;;18.40;66.60;;;;;;6119276;23;20002;-75
2021/06/11 19:08:35;;;;;;;23.63;18.88;;;18.30;66.60;;;;;;6120799;23;20033;-73
2021/06/11 19:11:23;;;;;;;21.98;18.00;;;18.30;66.60;;;;;;6119607;23;20094;-71
2021/06/11 19:13:59;;;;;;;22.15;18.52;;;18.30;66.70;;;;;;6119684;23;20056;-72
2021/06/11 19:16:27;;;;;;;23.40;16.02;;;18.30;66.70;;;;;;6122544;23;20307;-72
2021/06/11 19:19:05;;;;;;;21.48;15.07;;;18.30;66.80;;;;;;6121216;23;19998;-75
2021/06/11 19:21:35;;;;;;;13.25;11.15;;;18.30;66.80;;;;;;6122160;23;20037;-73
2021/06/11 19:24:19;;;;;;;16.42;11.52;;;18.30;66.80;;;;;;6119117;23;20010;-72
2021/06/11 19:26:47;;;;;;;18.10;12.18;;;18.30;66.80;;;;;;6121083;23;20047;-72
2021/06/11 19:29:33;;;;;;;15.90;9.45;;;18.20;66.80;;;;;;6121323;23;20013;-76
2021/06/11 19:32:01;;;;;;;13.57;9.77;;;18.20;66.80;;;;;;6120666;23;20178;-75
2021/06/11 19:34:28;;;;;;;12.23;10.32;;;18.20;66.80;;;;;;6121141;23;20005;-74
2021/06/11 19:37:01;;;;;;;11.40;8.82;;;18.20;66.90;;;;;;6118635;23;20076;-71
2021/06/11 19:39:48;;;;;;;14.70;9.52;;;18.20;66.90;;;;;;6121951;23;20426;-71
2021/06/11 19:42:14;;;;;;;;;;;18.20;67.00;;;;;;6122381;23;20329;-71
2021/06/11 19:45:07;;;;;;;12.13;8.82;;;18.20;66.90;;;;;;6120555;23;19909;-75
2021/06/11 19:47:34;;;;;;;11.45;8.07;;;18.20;66.90;;;;;;6122021;23;20029;-77
2021/06/11 19:50:11;;;;;;;11.40;7.68;;;18.10;66.80;;;;;;6121145;23;20445;-72
2021/06/11 19:53:10;;;;;;;9.88;7.57;;;18.20;67.00;;;;;;6120920;23;20073;-71
2021/06/11 19:55:39;;;;;;;6.88;6.18;;;18.10;67.00;;;;;;6121924;23;20030;-74
2021/06/11 19:58:11;;;;;;;9.55;6.70;;;18.10;66.90;;;;;;6120932;23;20460;-73
2021/06/11 20:00:38;;;;;;;10.07;7.53;;;18.10;66.90;;;;;;6122648;23;20005;-71
2021/06/11 20:03:05;;;;;;;12.18;7.63;;;18.10;67.00;;;;;;6121316;23;20002;-71
2021/06/11 20:05:36;;;;;;;11.50;8.20;;;18.10;66.90;;;;;;6120698;23;20088;-75
2021/06/11 20:08:04;;;;;;;10.20;8.52;;;18.10;67.00;;;;;;6121291;23;20018;-72
2021/06/11 20:10:31;;;;;;;14.27;9.55;;;18.00;66.80;;;;;;6119842;23;20006;-74
2021/06/11 20:12:58;;;;;;;10.98;8.13;;;18.10;66.90;;;;;;6121729;23;20010;-75
2021/06/11 20:15:25;;;;;;;11.20;8.45;;;18.10;66.80;;;;;;6120286;23;20010;-76
2021/06/11 20:17:51;;;;;;;13.65;8.77;;;18.00;66.80;;;;;;6121564;23;20013;-74
2021/06/11 20:20:18;;;;;;;13.25;8.45;;;18.00;66.80;;;;;;6121306;23;20010;-73
2021/06/11 20:22:44;;;;;;;11.82;9.40;;;18.00;66.90;;;;;;6121530;23;20028;-72
2021/06/11 20:25:11;;;;;;;15.52;10.15;;;18.00;67.00;;;;;;6122073;23;20367;-74
2021/06/11 20:27:38;;;;;;;14.45;9.98;;;18.00;67.10;;;;;;6120046;23;19998;-74
2021/06/11 20:30:06;;;;;;;14.10;11.40;;;18.00;67.10;;;;;;6121712;23;20509;-74
2021/06/11 20:32:33;;;;;;;19.23;12.80;;;18.00;67.10;;;;;;6120678;23;20390;-73
2021/06/11 20:34:59;;;;;;;16.73;13.77;;;18.00;67.10;;;;;;6120545;23;20006;-73
2021/06/11 20:37:26;;;;;;;20.90;15.10;;;17.90;67.20;;;;;;6120295;23;20542;-75
2021/06/11 20:39:53;;;;;;;25.98;15.48;;;17.90;67.90;;;;;;6119918;23;20089;-73
2021/06/11 20:42:20;;;;;;;25.42;16.73;;;17.90;67.90;;;;;;6120956;23;20010;-74
2021/06/11 20:44:47;;;;;;;20.67;14.77;;;17.90;67.30;;;;;;6120450;23;20021;-76
2021/06/11 20:47:13;;;;;;;19.35;15.40;;;17.90;67.30;;;;;;6119408;23;20299;-75
2021/06/11 20:49:40;;;;;;;21.33;15.65;;;17.90;67.30;;;;;;6120802;23;20441;-73
2021/06/11 20:52:07;;;;;;;23.88;14.52;;;17.90;67.40;;;;;;6121637;23;20583;-73
2021/06/11 20:54:33;;;;;;;24.00;14.27;;;17.90;67.50;;;;;;6120320;23;19998;-74
2021/06/11 20:57:01;;;;;;;19.30;13.63;;;17.90;67.50;;;;;;6120907;23;20013;-72
2021/06/11 20:59:31;;;;;;;19.65;13.40;;;17.80;67.50;;;;;;6118624;23;20337;-72
2021/06/11 21:02:37;;;;;;;20.35;14.18;;;17.90;67.50;;;;;;6117259;23;20081;-71
2021/06/11 21:05:43;;;;;;;18.88;13.63;;;17.80;67.40;;;;;;6120603;23;20013;-72
2021/06/11 21:08:49;;;;;;;21.65;15.43;;;17.80;67.40;;;;;;6120060;23;20014;-72
2021/06/11 21:11:55;;;;;;;19.75;15.15;;;17.80;67.40;;;;;;6119430;23;20012;-71
2021/06/11 21:15:01;;;;;;;20.95;14.88;;;17.80;67.40;;;;;;6120779;23;20024;-71
2021/06/11 21:18:07;;;;;;;23.80;15.65;;;17.80;67.50;;;;;;6120172;23;20014;-73
2021/06/11 21:21:16;;;;;;;24.40;17.38;;;17.80;67.50;;;;;;6119410;23;20307;-71
2021/06/11 21:24:22;;;;;;;25.67;16.70;;;17.70;67.50;;;;;;6120804;23;20013;-72
2021/06/11 21:27:28;;;;;;;22.95;17.40;;;17.70;67.50;;;;;;6122088;23;20077;-72
2021/06/11 21:30:35;;;;;;;28.98;16.33;;;17.70;67.60;;;;;;6121501;23;20006;-76
2021/06/11 21:33:41;;;;;;;19.85;14.75;;;17.70;67.70;;;;;;6120923;23;20134;-73
2021/06/11 21:36:19;;;;;;;21.88;13.43;;;17.70;67.60;;;;;;6120958;23;19998;-74
2021/06/11 21:38:46;;;;;;;22.15;14.70;;;17.70;68.30;;;;;;6119555;23;20438;-72
2021/06/11 21:41:14;;;;;;;21.80;14.68;;;17.60;67.60;;;;;;6120139;23;20434;-72
2021/06/11 21:43:41;;;;;;;20.15;13.35;;;17.60;67.60;;;;;;6121606;23;20021;-74
2021/06/11 21:46:09;;;;;;;18.13;14.68;;;17.60;67.70;;;;;;6117565;23;20434;-74
2021/06/11 21:48:37;;;;;;;18.48;12.93;;;17.60;67.70;;;;;;6121599;23;20006;-76
2021/06/11 21:51:05;;;;;;;22.75;13.23;;;17.60;67.70;;;;;;6118919;23;20358;-76
2021/06/11 21:53:40;;;;;;;17.50;11.40;;;17.60;67.70;;;;;;6121370;23;20012;-73
2021/06/11 21:56:14;;;;;;;14.77;11.85;;;17.60;67.80;;;;;;6121706;23;20077;-72
2021/06/11 21:58:41;;;;;;;11.45;10.23;;;17.60;67.80;;;;;;6119689;23;20346;-73
2021/06/11 22:01:10;;;;;;;10.63;8.63;;;17.50;67.80;;;;;;6121829;23;20077;-72
2021/06/11 22:03:37;;;;;;;9.60;7.72;;;17.50;68.40;;;;;;6120457;23;20033;-74
2021/06/11 22:06:04;;;;;;;12.20;7.35;;;17.50;67.70;;;;;;6121351;23;19998;-71
2021/06/11 22:08:32;;;;;;;10.93;6.05;;;17.50;67.70;;;;;;6120580;23;20072;-73
2021/06/11 22:11:00;;;;;;;7.18;6.32;;;17.50;67.70;;;;;;6120987;23;20060;-72
2021/06/11 22:13:27;;;;;;;5.85;4.50;;;17.50;67.70;;;;;;6121771;23;19998;-71
2021/06/11 22:15:54;;;;;;;8.85;6.15;;;17.50;67.70;;;;;;6118632;23;20010;-73
2021/06/11 22:18:21;;;;;;;8.00;5.60;;;17.50;67.70;;;;;;6121590;23;20002;-71
2021/06/11 22:20:49;;;;;;;14.27;5.75;;;17.50;67.70;;;;;;6120515;23;20452;-71
2021/06/11 22:23:16;;;;;;;6.72;4.25;;;17.50;67.60;;;;;;6121305;23;20006;-73
2021/06/11 22:25:43;;;;;;;7.00;5.00;;;17.50;67.60;;;;;;6120467;23;20053;-75
2021/06/11 22:28:10;;;;;;;8.23;4.07;;;17.50;67.50;;;;;;6121001;23;20422;-74
2021/06/11 22:30:41;;;;;;;7.50;4.20;;;17.50;67.50;;;;;;6121411;23;20028;-73
2021/06/11 22:33:11;;;;;;;6.22;4.95;;;17.50;67.50;;;;;;6120228;23;20006;-72
2021/06/11 22:35:39;;;;;;;10.23;6.32;;;17.50;67.50;;;;;;6121187;23;19998;-72
2021/06/11 22:38:07;;;;;;;9.95;6.05;;;17.40;67.40;;;;;;6119866;23;20020;-74
2021/06/11 22:40:34;;;;;;;8.95;6.75;;;17.50;67.50;;;;;;6121368;23;20433;-71
2021/06/11 22:43:02;;;;;;;11.48;7.28;;;17.40;67.50;;;;;;6120445;23;20013;-71
2021/06/11 22:45:28;;;;;;;13.10;9.38;;;17.40;67.60;;;;;;6121131;23;20072;-72
2021/06/11 22:47:55;;;;;;;9.95;8.50;;;17.40;67.70;;;;;;6119787;23;20397;-70
2021/06/11 22:50:27;;;;;;;10.95;8.73;;;17.40;67.80;;;;;;6122718;23;20002;-71
2021/06/11 22:52:55;;;;;;;15.80;8.40;;;17.40;67.80;;;;;;6123562;23;20417;-72
2021/06/11 22:55:23;;;;;;;15.25;9.40;;;17.40;67.90;;;;;;6122183;23;20005;-71
2021/06/11 22:57:51;;;;;;;10.50;8.00;;;17.30;67.90;;;;;;6122874;23;20021;-72
2021/06/11 23:00:36;;;;;;;9.82;7.97;;;17.30;68.00;;;;;;6122188;23;20002;-72
2021/06/11 23:03:03;;;;;;;12.27;8.57;;;17.30;68.10;;;;;;6120661;23;20513;-72
2021/06/11 23:05:30;;;;;;;15.10;11.02;;;17.30;68.20;;;;;;6123444;23;20457;-72
2021/06/11 23:07:57;;;;;;;19.48;13.13;;;17.30;68.20;;;;;;6121502;23;20021;-70
2021/06/11 23:10:27;;;;;;;15.63;12.15;;;17.30;68.30;;;;;;6123025;23;20496;-71
2021/06/11 23:12:54;;;;;;;18.88;11.70;;;17.30;68.40;;;;;;6122699;23;20021;-71